createdAt,value
2022-10-06T00:01:05.616Z,17.00
2022-10-06T00:06:02.426Z,20.38
2022-10-06T00:08:35.974Z,17.10
2022-10-06T00:11:04.534Z,16.80
2022-10-06T00:13:33.028Z,19.05
2022-10-06T00:16:01.579Z,16.85
2022-10-06T00:18:30.313Z,19.80
2022-10-06T00:21:00.407Z,13.57
2022-10-06T00:23:31.268Z,17.85
2022-10-06T00:25:58.934Z,16.38
2022-10-06T00:28:27.184Z,15.23
2022-10-06T00:30:56.532Z,15.13
2022-10-06T00:33:24.433Z,14.50
2022-10-06T00:35:59.072Z,16.08
2022-10-06T00:38:28.228Z,13.82
2022-10-06T00:40:56.940Z,16.13
2022-10-06T00:43:42.566Z,15.93
2022-10-06T00:46:38.424Z,15.32
2022-10-06T00:49:29.349Z,12.27
2022-10-06T00:52:07.159Z,14.77
2022-10-06T00:54:36.427Z,17.27
2022-10-06T00:57:06.473Z,17.02
2022-10-06T00:59:35.459Z,13.82
2022-10-06T01:02:03.623Z,15.10
2022-10-06T01:04:37.016Z,15.20
2022-10-06T01:07:05.004Z,14.32
2022-10-06T01:09:32.741Z,15.43
2022-10-06T01:12:03.848Z,15.65
2022-10-06T01:14:32.571Z,13.88
2022-10-06T01:17:09.949Z,16.70
2022-10-06T01:19:54.850Z,14.70
2022-10-06T01:22:30.882Z,13.18
2022-10-06T01:24:58.853Z,17.52
2022-10-06T01:27:29.710Z,13.80
2022-10-06T01:29:59.026Z,12.75
2022-10-06T01:32:33.480Z,16.23
2022-10-06T01:35:01.261Z,17.67
2022-10-06T01:37:29.569Z,18.85
2022-10-06T01:39:57.510Z,16.08
2022-10-06T01:42:26.931Z,12.38
2022-10-06T01:44:54.885Z,15.88
2022-10-06T01:47:22.547Z,13.32
2022-10-06T01:49:51.201Z,10.90
2022-10-06T01:52:20.053Z,19.08
2022-10-06T01:54:47.823Z,14.73
2022-10-06T01:57:18.179Z,19.92
2022-10-06T01:59:49.659Z,12.55
2022-10-06T02:02:20.396Z,12.57
2022-10-06T02:04:48.065Z,14.70
2022-10-06T02:07:15.849Z,11.35
2022-10-06T02:12:14.048Z,15.95
2022-10-06T02:14:42.483Z,20.70
2022-10-06T02:17:10.877Z,13.27
2022-10-06T02:19:39.001Z,12.93
2022-10-06T02:22:06.956Z,16.77
2022-10-06T02:24:34.478Z,13.52
2022-10-06T02:27:03.429Z,20.80
2022-10-06T02:29:31.077Z,15.70
2022-10-06T02:31:58.740Z,13.75
2022-10-06T02:34:26.700Z,11.70
2022-10-06T02:36:54.939Z,18.70
2022-10-06T02:39:22.561Z,13.00
2022-10-06T02:41:50.483Z,15.05
2022-10-06T02:44:19.969Z,10.82
2022-10-06T02:46:49.022Z,12.77
2022-10-06T02:51:45.913Z,13.43
2022-10-06T02:54:13.762Z,13.65
2022-10-06T02:56:41.375Z,10.65
2022-10-06T02:59:09.270Z,10.93
2022-10-06T03:01:38.349Z,11.88
2022-10-06T03:04:13.777Z,15.57
2022-10-06T03:06:42.764Z,12.35
2022-10-06T03:09:19.274Z,15.15
2022-10-06T03:11:47.384Z,13.30
2022-10-06T03:14:22.184Z,17.35
2022-10-06T03:16:52.086Z,18.73
2022-10-06T03:19:29.228Z,17.70
2022-10-06T03:21:56.870Z,21.67
2022-10-06T03:24:40.503Z,13.75
2022-10-06T03:27:08.215Z,17.15
2022-10-06T03:29:35.906Z,18.73
2022-10-06T03:32:04.872Z,23.52
2022-10-06T03:34:33.654Z,23.98
2022-10-06T03:37:04.463Z,16.17
2022-10-06T03:39:34.015Z,20.27
2022-10-06T03:42:02.370Z,17.92
2022-10-06T03:44:32.372Z,15.93
2022-10-06T03:47:00.265Z,31.10
2022-10-06T03:49:28.138Z,33.65
2022-10-06T03:51:56.004Z,40.65
2022-10-06T03:54:28.286Z,53.95
2022-10-06T03:56:56.991Z,62.47
2022-10-06T03:59:25.034Z,47.72
2022-10-06T04:01:53.293Z,64.70
2022-10-06T04:04:31.355Z,25.67
2022-10-06T04:07:02.738Z,34.60
2022-10-06T04:09:30.489Z,46.53
2022-10-06T04:11:58.359Z,48.55
2022-10-06T04:14:26.106Z,31.35
2022-10-06T04:16:54.056Z,41.70
2022-10-06T04:19:26.968Z,26.23
2022-10-06T04:21:56.491Z,77.63
2022-10-06T04:24:26.008Z,14.15
2022-10-06T04:27:14.283Z,309.92
2022-10-06T04:29:42.847Z,124.25
2022-10-06T04:32:11.611Z,342.70
2022-10-06T04:34:39.382Z,33.97
2022-10-06T04:37:07.222Z,259.40
2022-10-06T04:39:35.317Z,74.70
2022-10-06T04:42:03.626Z,64.63
2022-10-06T04:44:32.075Z,54.75
2022-10-06T04:47:02.537Z,55.95
2022-10-06T04:49:31.081Z,26.77
2022-10-06T04:51:58.738Z,53.05
2022-10-06T04:54:32.692Z,38.35
2022-10-06T04:57:01.754Z,43.35
2022-10-06T04:59:49.421Z,38.72
2022-10-06T05:02:19.409Z,25.45
2022-10-06T05:04:50.081Z,26.02
2022-10-06T05:07:18.394Z,31.33
2022-10-06T05:09:46.891Z,27.30
2022-10-06T05:12:15.077Z,22.70
2022-10-06T05:14:42.980Z,24.33
2022-10-06T05:17:11.617Z,22.13
2022-10-06T05:19:39.757Z,19.27
2022-10-06T05:22:08.147Z,31.02
2022-10-06T05:24:36.430Z,24.38
2022-10-06T05:27:04.734Z,25.75
2022-10-06T05:29:34.987Z,20.00
2022-10-06T05:32:05.246Z,34.60
2022-10-06T05:34:34.441Z,34.33
2022-10-06T05:37:02.344Z,29.52
2022-10-06T05:39:30.406Z,18.58
2022-10-06T05:41:59.443Z,61.78
2022-10-06T05:44:28.104Z,40.17
2022-10-06T05:46:59.145Z,29.60
2022-10-06T05:49:28.050Z,21.35
2022-10-06T05:51:58.986Z,19.55
2022-10-06T05:54:29.372Z,23.08
2022-10-06T05:56:57.419Z,132.52
2022-10-06T05:59:25.394Z,73.10
2022-10-06T06:01:55.444Z,23.10
2022-10-06T06:04:37.323Z,45.10
2022-10-06T06:07:05.091Z,56.40
2022-10-06T06:09:33.703Z,64.13
2022-10-06T06:12:03.724Z,55.72
2022-10-06T06:14:57.781Z,56.33
2022-10-06T06:20:03.595Z,34.60
2022-10-06T06:22:31.395Z,69.15
2022-10-06T06:24:59.937Z,61.13
2022-10-06T06:27:27.965Z,21.40
2022-10-06T06:29:56.039Z,23.92
2022-10-06T06:32:24.139Z,36.95
2022-10-06T06:34:53.133Z,50.70
2022-10-06T06:37:20.850Z,31.67
2022-10-06T06:39:48.830Z,29.63
2022-10-06T06:42:17.618Z,27.27
2022-10-06T06:45:06.207Z,18.40
2022-10-06T06:47:41.068Z,20.30
2022-10-06T06:50:10.801Z,22.83
2022-10-06T06:52:42.370Z,39.63
2022-10-06T06:55:12.822Z,27.80
2022-10-06T06:57:42.874Z,26.08
2022-10-06T07:00:11.632Z,41.40
2022-10-06T07:02:40.347Z,22.70
2022-10-06T07:05:11.958Z,17.90
2022-10-06T07:07:40.547Z,27.35
2022-10-06T07:10:09.589Z,25.10
2022-10-06T07:12:38.415Z,25.35
2022-10-06T07:15:25.014Z,32.85
2022-10-06T07:18:12.907Z,39.42
2022-10-06T07:20:59.616Z,19.25
2022-10-06T07:23:55.033Z,35.63
2022-10-06T07:26:23.091Z,31.10
2022-10-06T07:28:52.669Z,21.83
2022-10-06T07:31:20.829Z,19.88
2022-10-06T07:33:49.249Z,23.98
2022-10-06T07:36:18.666Z,21.23
2022-10-06T07:38:47.948Z,19.35
2022-10-06T07:41:19.989Z,19.10
2022-10-06T07:43:58.206Z,19.95
2022-10-06T07:46:29.014Z,20.77
2022-10-06T07:49:04.816Z,17.60
2022-10-06T07:51:32.862Z,16.63
2022-10-06T07:54:03.109Z,18.17
2022-10-06T07:56:59.914Z,17.08
2022-10-06T07:59:27.681Z,17.02
2022-10-06T08:01:55.444Z,17.25
2022-10-06T08:04:23.224Z,14.68
2022-10-06T08:06:51.014Z,15.68
2022-10-06T08:09:18.560Z,15.50
2022-10-06T08:11:47.458Z,14.05
2022-10-06T08:14:15.283Z,13.63
2022-10-06T08:16:43.000Z,14.70
2022-10-06T08:19:12.053Z,14.73
2022-10-06T08:21:40.295Z,11.57
2022-10-06T08:24:07.877Z,13.18
2022-10-06T08:26:36.192Z,13.48
2022-10-06T08:29:04.288Z,12.95
2022-10-06T08:31:32.924Z,12.80
2022-10-06T08:34:01.660Z,9.13
2022-10-06T08:36:32.224Z,10.85
2022-10-06T08:39:01.474Z,11.18
2022-10-06T08:41:48.529Z,9.65
2022-10-06T08:44:42.380Z,10.45
2022-10-06T08:47:20.373Z,12.15
2022-10-06T08:49:50.268Z,10.43
2022-10-06T08:52:50.213Z,10.38
2022-10-06T08:55:27.111Z,11.95
2022-10-06T08:58:18.049Z,11.50
2022-10-06T09:00:46.156Z,13.00
2022-10-06T09:03:24.308Z,12.90
2022-10-06T09:06:08.777Z,11.05
2022-10-06T09:08:46.735Z,11.68
2022-10-06T09:11:36.308Z,11.43
2022-10-06T09:14:14.202Z,14.03
2022-10-06T09:16:49.102Z,12.00
2022-10-06T09:19:26.294Z,12.75
2022-10-06T09:21:56.224Z,11.95
2022-10-06T09:24:42.390Z,11.52
2022-10-06T09:27:31.130Z,10.70
2022-10-06T09:30:00.192Z,11.05
2022-10-06T09:32:29.933Z,11.45
2022-10-06T09:35:02.960Z,15.02
2022-10-06T09:37:57.941Z,9.55
2022-10-06T09:40:51.945Z,12.88
2022-10-06T09:43:29.455Z,11.63
2022-10-06T09:46:28.978Z,11.73
2022-10-06T09:49:08.516Z,12.67
2022-10-06T09:51:36.556Z,12.13
2022-10-06T09:54:16.374Z,11.18
2022-10-06T09:56:46.346Z,9.63
2022-10-06T09:59:39.849Z,9.68
2022-10-06T10:02:33.159Z,8.98
2022-10-06T10:05:02.459Z,8.80
2022-10-06T10:07:31.436Z,8.55
2022-10-06T10:10:19.908Z,10.48
2022-10-06T10:13:24.427Z,10.40
2022-10-06T10:16:03.138Z,17.45
2022-10-06T10:18:32.290Z,10.07
2022-10-06T10:21:06.746Z,9.18
2022-10-06T10:23:55.843Z,8.23
2022-10-06T10:26:58.652Z,12.05
2022-10-06T10:29:36.969Z,9.57
2022-10-06T10:32:20.676Z,8.20
2022-10-06T10:35:07.156Z,10.70
2022-10-06T10:37:54.881Z,11.93
2022-10-06T10:40:31.604Z,11.43
2022-10-06T10:43:22.877Z,8.65
2022-10-06T10:46:12.095Z,8.30
2022-10-06T10:48:50.046Z,7.88
2022-10-06T10:51:28.128Z,8.00
2022-10-06T10:54:05.385Z,8.27
2022-10-06T10:56:33.806Z,7.45
2022-10-06T10:59:15.523Z,8.88
2022-10-06T11:01:59.060Z,8.43
2022-10-06T11:04:27.790Z,8.55
2022-10-06T11:07:20.085Z,7.22
2022-10-06T11:10:06.319Z,7.45
2022-10-06T11:12:49.842Z,6.88
2022-10-06T11:15:21.807Z,8.07
2022-10-06T11:17:52.716Z,8.07
2022-10-06T11:20:23.799Z,7.78
2022-10-06T11:23:09.053Z,7.88
2022-10-06T11:26:21.605Z,7.97
2022-10-06T11:29:13.729Z,8.88
2022-10-06T11:32:00.497Z,8.23
2022-10-06T11:34:28.697Z,7.45
2022-10-06T11:37:18.189Z,7.55
2022-10-06T11:40:19.046Z,9.60
2022-10-06T11:43:04.347Z,8.95
2022-10-06T11:46:07.718Z,9.25
2022-10-06T11:48:36.067Z,8.63
2022-10-06T11:51:25.551Z,8.93
2022-10-06T11:53:54.694Z,9.13
2022-10-06T11:58:56.528Z,8.45
2022-10-06T12:01:40.046Z,8.02
2022-10-06T12:04:11.042Z,9.35
2022-10-06T12:06:45.403Z,9.40
2022-10-06T12:09:41.270Z,12.75
2022-10-06T12:12:15.457Z,9.57
2022-10-06T12:18:00.522Z,10.80
2022-10-06T12:20:46.160Z,9.38
2022-10-06T12:23:20.691Z,8.63
2022-10-06T12:26:23.017Z,8.80
2022-10-06T12:29:11.422Z,10.18
2022-10-06T12:31:43.890Z,9.30
2022-10-06T12:34:57.104Z,9.07
2022-10-06T12:37:41.911Z,11.20
2022-10-06T12:40:47.279Z,10.45
2022-10-06T12:43:14.903Z,10.68
2022-10-06T12:45:48.857Z,10.15
2022-10-06T12:48:26.594Z,9.82
2022-10-06T12:51:18.894Z,10.73
2022-10-06T12:53:53.848Z,10.50
2022-10-06T12:56:32.365Z,10.65
2022-10-06T12:59:25.852Z,11.77
2022-10-06T13:02:00.461Z,10.63
2022-10-06T13:04:37.679Z,10.32
2022-10-06T13:07:17.297Z,13.10
2022-10-06T13:09:46.199Z,13.27
2022-10-06T13:12:32.557Z,13.18
2022-10-06T13:15:18.694Z,12.80
2022-10-06T13:18:18.252Z,14.45
2022-10-06T13:20:59.430Z,15.32
2022-10-06T13:23:36.598Z,16.98
2022-10-06T13:26:06.249Z,16.23
2022-10-06T13:28:36.676Z,12.40
2022-10-06T13:31:20.282Z,14.73
2022-10-06T13:34:02.816Z,23.58
2022-10-06T13:36:39.701Z,25.25
2022-10-06T13:39:17.341Z,30.45
2022-10-06T13:41:51.227Z,35.92
2022-10-06T13:44:22.212Z,31.80
2022-10-06T13:46:57.059Z,10.55
2022-10-06T13:49:28.992Z,12.95
2022-10-06T13:52:08.870Z,10.52
2022-10-06T13:54:46.889Z,11.88
2022-10-06T13:57:46.076Z,11.80
2022-10-06T14:01:01.355Z,12.98
2022-10-06T14:06:14.153Z,10.52
2022-10-06T14:08:46.453Z,11.48
2022-10-06T14:11:14.511Z,13.85
2022-10-06T14:16:26.587Z,9.10
2022-10-06T14:19:03.459Z,12.40
2022-10-06T14:21:42.089Z,7.85
2022-10-06T14:24:15.985Z,8.10
2022-10-06T14:26:45.834Z,8.50
2022-10-06T14:29:14.973Z,13.68
2022-10-06T14:31:46.404Z,14.65
2022-10-06T14:34:18.985Z,7.53
2022-10-06T14:36:51.669Z,9.25
2022-10-06T14:39:20.129Z,8.77
2022-10-06T14:41:48.265Z,13.48
2022-10-06T14:44:16.723Z,11.00
2022-10-06T14:46:48.563Z,8.73
2022-10-06T14:49:17.407Z,11.45
2022-10-06T14:51:46.583Z,11.40
2022-10-06T14:54:15.138Z,14.25
2022-10-06T14:56:44.735Z,12.30
2022-10-06T14:59:17.250Z,12.88
2022-10-06T15:01:47.012Z,10.43
2022-10-06T15:04:17.518Z,15.98
2022-10-06T15:07:04.280Z,15.13
2022-10-06T15:09:32.820Z,13.73
2022-10-06T15:12:01.100Z,10.18
2022-10-06T15:14:29.858Z,13.75
2022-10-06T15:17:01.548Z,14.10
2022-10-06T15:19:29.383Z,12.27
2022-10-06T15:21:57.047Z,10.15
2022-10-06T15:24:26.612Z,9.05
2022-10-06T15:27:13.082Z,10.25
2022-10-06T15:29:41.387Z,11.23
2022-10-06T15:32:10.003Z,14.77
2022-10-06T15:34:38.105Z,10.55
2022-10-06T15:37:06.345Z,8.38
2022-10-06T15:39:37.235Z,9.00
2022-10-06T15:42:06.220Z,11.93
2022-10-06T15:44:35.078Z,9.23
2022-10-06T15:47:05.891Z,8.15
2022-10-06T15:49:38.424Z,11.52
2022-10-06T15:52:06.941Z,7.65
2022-10-06T15:54:41.166Z,13.43
2022-10-06T15:57:16.296Z,10.27
2022-10-06T15:59:45.928Z,10.30
2022-10-06T16:02:18.611Z,10.70
2022-10-06T16:05:09.713Z,8.13
2022-10-06T16:07:37.456Z,9.40
2022-10-06T16:10:05.870Z,10.98
2022-10-06T16:12:33.850Z,11.65
2022-10-06T16:15:01.763Z,12.38
2022-10-06T16:17:29.807Z,13.02
2022-10-06T16:19:57.980Z,12.45
2022-10-06T16:22:25.928Z,9.82
2022-10-06T16:24:53.633Z,9.55
2022-10-06T16:27:21.465Z,8.50
2022-10-06T16:29:49.634Z,11.32
2022-10-06T16:32:17.456Z,16.92
2022-10-06T16:34:50.550Z,10.48
2022-10-06T16:37:18.222Z,12.90
2022-10-06T16:39:45.976Z,22.77
2022-10-06T16:42:13.823Z,13.68
2022-10-06T16:44:42.298Z,15.15
2022-10-06T16:47:10.170Z,18.73
2022-10-06T16:49:39.644Z,47.17
2022-10-06T16:52:07.597Z,23.10
2022-10-06T16:54:35.515Z,11.55
2022-10-06T16:57:07.021Z,12.05
2022-10-06T16:59:35.935Z,33.33
2022-10-06T17:02:04.169Z,15.00
2022-10-06T17:04:32.126Z,16.52
2022-10-06T17:07:00.302Z,22.05
2022-10-06T17:09:32.227Z,16.25
2022-10-06T17:12:02.535Z,19.45
2022-10-06T17:14:32.891Z,12.45
2022-10-06T17:17:03.733Z,15.63
2022-10-06T17:19:31.854Z,19.43
2022-10-06T17:22:00.452Z,14.23
2022-10-06T17:24:30.322Z,22.65
2022-10-06T17:26:59.547Z,27.80
2022-10-06T17:29:28.424Z,33.05
2022-10-06T17:31:59.578Z,56.13
2022-10-06T17:34:33.705Z,49.55
2022-10-06T17:37:03.930Z,59.80
2022-10-06T17:39:32.455Z,59.83
2022-10-06T17:42:00.891Z,52.47
2022-10-06T17:44:31.486Z,53.92
2022-10-06T17:47:01.129Z,60.00
2022-10-06T17:49:33.701Z,52.78
2022-10-06T17:52:02.208Z,41.47
2022-10-06T17:54:34.290Z,38.47
2022-10-06T17:57:04.020Z,48.15
2022-10-06T17:59:32.337Z,57.28
2022-10-06T18:02:06.637Z,55.45
2022-10-06T18:04:41.643Z,47.35
2022-10-06T18:07:12.062Z,52.88
2022-10-06T18:10:01.375Z,52.35
2022-10-06T18:12:37.186Z,50.40
2022-10-06T18:15:05.892Z,61.17
2022-10-06T18:17:35.490Z,74.07
2022-10-06T18:20:06.649Z,67.93
2022-10-06T18:22:35.071Z,64.53
2022-10-06T18:25:05.801Z,65.63
2022-10-06T18:27:34.590Z,67.38
2022-10-06T18:30:02.751Z,66.03
2022-10-06T18:38:11.677Z,78.53
2022-10-06T18:40:41.659Z,78.53
2022-10-06T18:43:10.392Z,76.65
2022-10-06T18:45:58.190Z,80.63
2022-10-06T18:48:45.282Z,89.82
2022-10-06T18:51:14.643Z,94.95
2022-10-06T18:53:43.856Z,81.95
2022-10-06T18:56:14.502Z,81.53
2022-10-06T18:58:44.714Z,82.13
2022-10-06T19:01:13.325Z,82.38
2022-10-06T19:03:42.114Z,80.63
2022-10-06T19:06:10.788Z,86.88
2022-10-06T19:08:39.118Z,84.97
2022-10-06T19:11:27.226Z,86.05
2022-10-06T19:13:57.949Z,91.55
2022-10-06T19:16:26.191Z,93.60
2022-10-06T19:18:55.561Z,108.47
2022-10-06T19:21:24.535Z,117.68
2022-10-06T19:23:54.360Z,113.75
2022-10-06T19:26:23.403Z,94.30
2022-10-06T19:28:51.762Z,98.70
2022-10-06T19:31:20.167Z,85.88
2022-10-06T19:33:49.230Z,90.40
2022-10-06T19:36:17.522Z,133.48
2022-10-06T19:38:47.469Z,97.53
2022-10-06T19:41:38.227Z,92.35
2022-10-06T19:44:06.703Z,94.13
2022-10-06T19:46:37.226Z,82.20
2022-10-06T19:49:07.184Z,82.03
2022-10-06T19:51:37.134Z,74.10
2022-10-06T19:54:05.927Z,72.55
2022-10-06T19:56:34.660Z,72.60
2022-10-06T19:59:04.170Z,73.10
2022-10-06T20:01:33.927Z,70.93
2022-10-06T20:04:04.329Z,67.38
2022-10-06T20:09:07.359Z,55.28
2022-10-06T20:11:38.249Z,57.80
2022-10-06T20:14:11.185Z,59.78
2022-10-06T20:16:41.540Z,55.88
2022-10-06T20:19:11.602Z,58.22
2022-10-06T20:21:40.510Z,52.78
2022-10-06T20:24:16.183Z,49.13
2022-10-06T20:26:46.598Z,46.65
2022-10-06T20:31:49.257Z,42.55
2022-10-06T20:34:26.414Z,38.92
2022-10-06T20:36:56.186Z,42.80
2022-10-06T20:39:42.946Z,38.97
2022-10-06T20:42:15.155Z,39.55
2022-10-06T20:44:44.254Z,42.13
2022-10-06T20:47:13.319Z,38.30
2022-10-06T20:49:42.757Z,36.08
2022-10-06T20:52:14.544Z,40.97
2022-10-06T20:54:42.491Z,37.53
2022-10-06T20:57:10.485Z,33.53
2022-10-06T20:59:38.289Z,34.83
2022-10-06T21:02:06.987Z,30.65
2022-10-06T21:04:35.351Z,21.77
2022-10-06T21:07:06.574Z,22.52
2022-10-06T21:09:34.626Z,34.22
2022-10-06T21:12:05.447Z,31.48
2022-10-06T21:14:34.445Z,32.17
2022-10-06T21:17:02.481Z,27.50
2022-10-06T21:19:30.498Z,24.88
2022-10-06T21:21:58.767Z,30.48
2022-10-06T21:24:26.714Z,24.08
2022-10-06T21:26:54.569Z,28.92
2022-10-06T21:29:22.183Z,20.42
2022-10-06T21:31:50.184Z,17.75
2022-10-06T21:34:17.797Z,18.58
2022-10-06T21:36:45.562Z,16.85
2022-10-06T21:39:13.902Z,16.02
2022-10-06T21:41:41.982Z,15.20
2022-10-06T21:44:15.735Z,11.65
2022-10-06T21:46:51.829Z,11.95
2022-10-06T21:49:22.477Z,14.02
2022-10-06T21:51:52.829Z,14.93
2022-10-06T21:56:49.049Z,24.73
2022-10-06T21:59:16.825Z,24.98
2022-10-06T22:01:46.583Z,25.98
2022-10-06T22:04:15.256Z,29.17
2022-10-06T22:06:44.550Z,26.27
2022-10-06T22:09:17.832Z,23.60
2022-10-06T22:11:45.953Z,26.95
2022-10-06T22:14:16.796Z,22.02
2022-10-06T22:16:45.071Z,19.90
2022-10-06T22:19:14.703Z,25.30
2022-10-06T22:21:45.250Z,27.33
2022-10-06T22:26:42.495Z,19.65
2022-10-06T22:29:13.327Z,18.42
2022-10-06T22:31:43.578Z,28.20
2022-10-06T22:34:13.563Z,29.50
2022-10-06T22:36:41.478Z,23.73
2022-10-06T22:39:09.145Z,25.27
2022-10-06T22:41:37.731Z,18.90
2022-10-06T22:44:05.781Z,25.60
2022-10-06T22:46:35.791Z,20.27
2022-10-06T22:49:05.304Z,25.58
2022-10-06T22:51:33.643Z,30.27
2022-10-06T22:54:01.910Z,27.35
2022-10-06T22:56:32.094Z,25.17
2022-10-06T22:59:00.645Z,23.33
2022-10-06T23:01:29.942Z,23.63
2022-10-06T23:03:58.876Z,23.87
2022-10-06T23:06:29.998Z,26.23
2022-10-06T23:08:58.348Z,21.42
2022-10-06T23:11:26.233Z,25.80
2022-10-06T23:13:54.268Z,22.00
2022-10-06T23:16:22.940Z,23.40
2022-10-06T23:18:51.578Z,19.23
2022-10-06T23:21:22.302Z,29.00
2022-10-06T23:23:59.569Z,25.27
2022-10-06T23:26:27.731Z,17.23
2022-10-06T23:28:58.504Z,19.20
2022-10-06T23:31:28.402Z,20.33
2022-10-06T23:33:56.561Z,22.38
2022-10-06T23:36:24.555Z,19.08
2022-10-06T23:38:52.591Z,16.90
2022-10-06T23:41:20.485Z,19.88
2022-10-06T23:43:48.209Z,17.25
2022-10-06T23:46:16.383Z,14.85
2022-10-06T23:48:44.464Z,15.65
2022-10-06T23:51:14.542Z,15.07
2022-10-06T23:53:43.582Z,21.20
2022-10-06T23:56:12.123Z,23.20
2022-10-06T23:58:42.222Z,28.48
